sensor_id;sensor_type;location;lat;lon;timestamp;pressure;altitude;pressure_sealevel;temperature;humidity
22647;BME280;11490;42.726;23.268;2023-09-18T00:00:00;95678.28;;;17.58;100.00
22647;BME280;11490;42.726;23.268;2023-09-18T00:02:58;95716.91;;;17.89;100.00
22647;BME280;11490;42.726;23.268;2023-09-18T00:18:41;95709.03;;;18.33;100.00
22647;BME280;11490;42.726;23.268;2023-09-18T00:24:42;95634.63;;;17.66;100.00
22647;BME280;11490;42.726;23.268;2023-09-18T00:33:37;95654.81;;;17.89;100.00
22647;BME280;11490;42.726;23.268;2023-09-18T00:39:35;95664.84;;;17.68;100.00
22647;BME280;11490;42.726;23.268;2023-09-18T00:42:00;95675.63;;;17.88;100.00
22647;BME280;11490;42.726;23.268;2023-09-18T00:59:13;95645.94;;;17.88;100.00
22647;BME280;11490;42.726;23.268;2023-09-18T01:02:34;95663.22;;;17.87;100.00
22647;BME280;11490;42.726;23.268;2023-09-18T01:46:33;95648.09;;;17.41;100.00
22647;BME280;11490;42.726;23.268;2023-09-18T01:56:05;95736.88;;;18.08;100.00
22647;BME280;11490;42.726;23.268;2023-09-18T01:58:33;95719.31;;;18.16;100.00
22647;BME280;11490;42.726;23.268;2023-09-18T02:01:13;95722.31;;;17.84;100.00
22647;BME280;11490;42.726;23.268;2023-09-18T02:04:14;95659.16;;;17.54;100.00
22647;BME280;11490;42.726;23.268;2023-09-18T02:10:42;95665.13;;;17.72;100.00
22647;BME280;11490;42.726;23.268;2023-09-18T02:30:41;95682.38;;;17.65;100.00
22647;BME280;11490;42.726;23.268;2023-09-18T02:33:43;95645.13;;;17.52;100.00
22647;BME280;11490;42.726;23.268;2023-09-18T02:51:33;95655.06;;;17.01;100.00
22647;BME280;11490;42.726;23.268;2023-09-18T02:58:03;95679.38;;;17.37;100.00
22647;BME280;11490;42.726;23.268;2023-09-18T03:07:31;95750.66;;;17.86;100.00
22647;BME280;11490;42.726;23.268;2023-09-18T03:10:14;95712.03;;;17.55;100.00
22647;BME280;11490;42.726;23.268;2023-09-18T03:16:33;95745.53;;;17.95;100.00
22647;BME280;11490;42.726;23.268;2023-09-18T03:19:17;95681.00;;;17.38;100.00
22647;BME280;11490;42.726;23.268;2023-09-18T03:22:11;95701.00;;;17.62;100.00
22647;BME280;11490;42.726;23.268;2023-09-18T03:25:08;95719.56;;;17.38;100.00
22647;BME280;11490;42.726;23.268;2023-09-18T03:37:54;95717.72;;;17.64;100.00
22647;BME280;11490;42.726;23.268;2023-09-18T03:51:05;95670.16;;;17.07;100.00
22647;BME280;11490;42.726;23.268;2023-09-18T03:54:08;95721.47;;;17.53;100.00
22647;BME280;11490;42.726;23.268;2023-09-18T04:00:06;95724.47;;;17.77;100.00
22647;BME280;11490;42.726;23.268;2023-09-18T04:03:37;95715.56;;;17.76;100.00
22647;BME280;11490;42.726;23.268;2023-09-18T04:06:03;95668.03;;;17.09;100.00
22647;BME280;11490;42.726;23.268;2023-09-18T04:12:17;95711.75;;;17.47;100.00
22647;BME280;11490;42.726;23.268;2023-09-18T04:15:05;95721.47;;;17.73;100.00
22647;BME280;11490;42.726;23.268;2023-09-18T04:38:15;95726.81;;;17.43;100.00
22647;BME280;11490;42.726;23.268;2023-09-18T04:40:59;95737.69;;;17.63;100.00
22647;BME280;11490;42.726;23.268;2023-09-18T04:43:27;95737.69;;;17.68;100.00
22647;BME280;11490;42.726;23.268;2023-09-18T04:45:58;95709.59;;;17.59;100.00
22647;BME280;11490;42.726;23.268;2023-09-18T04:48:26;95715.03;;;17.69;100.00
22647;BME280;11490;42.726;23.268;2023-09-18T04:50:51;95722.59;;;17.77;100.00
22647;BME280;11490;42.726;23.268;2023-09-18T04:53:17;95732.56;;;17.87;100.00
22647;BME280;11490;42.726;23.268;2023-09-18T04:55:42;95694.22;;;17.39;100.00
22647;BME280;11490;42.726;23.268;2023-09-18T04:58:11;95679.91;;;17.59;100.00
22647;BME280;11490;42.726;23.268;2023-09-18T05:00:39;95655.09;;;17.31;100.00
22647;BME280;11490;42.726;23.268;2023-09-18T05:03:04;95742.81;;;17.95;100.00
22647;BME280;11490;42.726;23.268;2023-09-18T05:05:45;95698.28;;;17.82;100.00
22647;BME280;11490;42.726;23.268;2023-09-18T05:08:11;95693.97;;;17.81;100.00
22647;BME280;11490;42.726;23.268;2023-09-18T05:10:36;95703.16;;;17.95;100.00
22647;BME280;11490;42.726;23.268;2023-09-18T05:13:26;95740.63;;;18.32;100.00
22647;BME280;11490;42.726;23.268;2023-09-18T05:15:51;95723.91;;;18.10;100.00
22647;BME280;11490;42.726;23.268;2023-09-18T05:18:17;95671.31;;;17.87;100.00
22647;BME280;11490;42.726;23.268;2023-09-18T05:20:42;95744.94;;;18.28;100.00
22647;BME280;11490;42.726;23.268;2023-09-18T05:23:07;95741.94;;;18.45;100.00
22647;BME280;11490;42.726;23.268;2023-09-18T05:25:33;95751.94;;;18.50;100.00
22647;BME280;11490;42.726;23.268;2023-09-18T05:28:02;95747.28;;;18.75;100.00
22647;BME280;11490;42.726;23.268;2023-09-18T05:30:32;95750.97;;;19.00;100.00
22647;BME280;11490;42.726;23.268;2023-09-18T05:33:00;95741.63;;;19.31;100.00
22647;BME280;11490;42.726;23.268;2023-09-18T05:35:41;95752.22;;;19.72;98.42
22647;BME280;11490;42.726;23.268;2023-09-18T05:38:13;95759.16;;;19.83;98.36
22647;BME280;11490;42.726;23.268;2023-09-18T05:40:40;95732.38;;;19.81;97.58
22647;BME280;11490;42.726;23.268;2023-09-18T05:43:06;95730.66;;;20.24;95.41
22647;BME280;11490;42.726;23.268;2023-09-18T05:45:32;95713.66;;;19.85;94.25
22647;BME280;11490;42.726;23.268;2023-09-18T05:48:22;95768.69;;;20.09;93.68
22647;BME280;11490;42.726;23.268;2023-09-18T05:54:36;95703.09;;;20.70;90.95
22647;BME280;11490;42.726;23.268;2023-09-18T05:57:02;95771.75;;;20.89;90.31
22647;BME280;11490;42.726;23.268;2023-09-18T05:59:30;95749.00;;;20.61;90.09
22647;BME280;11490;42.726;23.268;2023-09-18T06:02:11;95744.66;;;20.31;91.56
22647;BME280;11490;42.726;23.268;2023-09-18T06:04:37;95757.69;;;20.29;91.00
22647;BME280;11490;42.726;23.268;2023-09-18T06:07:03;95735.53;;;20.22;92.75
22647;BME280;11490;42.726;23.268;2023-09-18T06:09:52;95768.81;;;21.52;89.34
22647;BME280;11490;42.726;23.268;2023-09-18T06:12:21;95734.53;;;21.19;88.74
22647;BME280;11490;42.726;23.268;2023-09-18T06:14:46;95728.53;;;20.74;88.98
22647;BME280;11490;42.726;23.268;2023-09-18T06:17:13;95759.00;;;20.66;89.80
22647;BME280;11490;42.726;23.268;2023-09-18T06:19:43;95749.09;;;20.99;88.88
22647;BME280;11490;42.726;23.268;2023-09-18T06:22:09;95759.47;;;21.21;86.63
22647;BME280;11490;42.726;23.268;2023-09-18T06:24:35;95762.72;;;20.70;90.27
22647;BME280;11490;42.726;23.268;2023-09-18T06:27:18;95723.97;;;20.69;88.52
22647;BME280;11490;42.726;23.268;2023-09-18T06:30:17;95742.53;;;21.05;88.77
22647;BME280;11490;42.726;23.268;2023-09-18T06:32:35;95764.25;;;20.52;89.81
22647;BME280;11490;42.726;23.268;2023-09-18T06:35:02;95729.00;;;20.28;91.09
22647;BME280;11490;42.726;23.268;2023-09-18T06:37:30;95755.47;;;20.36;90.55
22647;BME280;11490;42.726;23.268;2023-09-18T06:39:56;95731.25;;;20.16;92.12
22647;BME280;11490;42.726;23.268;2023-09-18T06:42:24;95756.72;;;20.15;91.52
22647;BME280;11490;42.726;23.268;2023-09-18T06:44:50;95749.50;;;20.40;92.18
22647;BME280;11490;42.726;23.268;2023-09-18T06:47:15;95746.38;;;20.22;91.62
22647;BME280;11490;42.726;23.268;2023-09-18T06:49:41;95729.00;;;20.28;92.62
22647;BME280;11490;42.726;23.268;2023-09-18T06:52:08;95752.63;;;20.52;91.32
22647;BME280;11490;42.726;23.268;2023-09-18T06:54:34;95768.03;;;20.80;89.79
22647;BME280;11490;42.726;23.268;2023-09-18T06:56:59;95747.63;;;20.64;90.13
22647;BME280;11490;42.726;23.268;2023-09-18T06:59:24;95765.50;;;20.89;88.98
22647;BME280;11490;42.726;23.268;2023-09-18T07:01:50;95763.09;;;20.87;89.11
22647;BME280;11490;42.726;23.268;2023-09-18T07:04:15;95748.19;;;20.61;90.15
22647;BME280;11490;42.726;23.268;2023-09-18T07:06:41;95761.47;;;20.86;90.22
22647;BME280;11490;42.726;23.268;2023-09-18T07:09:06;95746.00;;;20.63;90.61
22647;BME280;11490;42.726;23.268;2023-09-18T07:11:33;95744.63;;;20.89;88.86
22647;BME280;11490;42.726;23.268;2023-09-18T07:13:58;95740.69;;;21.00;87.51
22647;BME280;11490;42.726;23.268;2023-09-18T07:16:24;95762.19;;;21.58;86.81
22647;BME280;11490;42.726;23.268;2023-09-18T07:18:50;95736.78;;;20.64;87.57
22647;BME280;11490;42.726;23.268;2023-09-18T07:21:27;95727.19;;;20.95;86.50
22647;BME280;11490;42.726;23.268;2023-09-18T07:23:54;95742.00;;;21.27;87.13
22647;BME280;11490;42.726;23.268;2023-09-18T07:26:26;95743.19;;;21.39;84.81
22647;BME280;11490;42.726;23.268;2023-09-18T07:28:54;95738.44;;;21.50;84.55
22647;BME280;11490;42.726;23.268;2023-09-18T07:31:19;95744.06;;;21.91;84.88
22647;BME280;11490;42.726;23.268;2023-09-18T07:33:45;95770.88;;;21.98;83.46
22647;BME280;11490;42.726;23.268;2023-09-18T07:36:10;95754.66;;;22.25;84.09
22647;BME280;11490;42.726;23.268;2023-09-18T07:38:36;95754.63;;;22.11;82.29
22647;BME280;11490;42.726;23.268;2023-09-18T07:41:22;95748.13;;;22.26;80.90
22647;BME280;11490;42.726;23.268;2023-09-18T07:43:51;95711.13;;;21.60;81.52
22647;BME280;11490;42.726;23.268;2023-09-18T07:46:17;95782.53;;;22.31;81.71
22647;BME280;11490;42.726;23.268;2023-09-18T07:48:42;95751.84;;;21.79;82.91
22647;BME280;11490;42.726;23.268;2023-09-18T07:51:19;95754.13;;;22.23;82.42
22647;BME280;11490;42.726;23.268;2023-09-18T07:53:44;95735.72;;;22.20;82.95
22647;BME280;11490;42.726;23.268;2023-09-18T07:56:10;95760.19;;;22.20;82.77
22647;BME280;11490;42.726;23.268;2023-09-18T07:58:37;95757.09;;;22.40;81.71
22647;BME280;11490;42.726;23.268;2023-09-18T08:01:14;95765.38;;;22.49;80.92
22647;BME280;11490;42.726;23.268;2023-09-18T08:03:53;95765.09;;;22.18;81.24
22647;BME280;11490;42.726;23.268;2023-09-18T08:06:21;95730.63;;;21.62;83.17
22647;BME280;11490;42.726;23.268;2023-09-18T08:08:48;95714.44;;;21.20;84.64
22647;BME280;11490;42.726;23.268;2023-09-18T08:11:13;95723.16;;;21.54;83.45
22647;BME280;11490;42.726;23.268;2023-09-18T08:13:42;95720.91;;;21.94;83.26
22647;BME280;11490;42.726;23.268;2023-09-18T08:16:17;95742.56;;;22.17;80.41
22647;BME280;11490;42.726;23.268;2023-09-18T08:18:43;95763.28;;;22.59;80.59
22647;BME280;11490;42.726;23.268;2023-09-18T08:21:08;95737.84;;;23.10;77.77
22647;BME280;11490;42.726;23.268;2023-09-18T08:23:35;95732.78;;;23.17;75.94
22647;BME280;11490;42.726;23.268;2023-09-18T08:26:01;95734.38;;;23.46;75.36
22647;BME280;11490;42.726;23.268;2023-09-18T08:28:29;95761.34;;;24.05;74.78
22647;BME280;11490;42.726;23.268;2023-09-18T08:30:57;95706.47;;;23.76;73.73
22647;BME280;11490;42.726;23.268;2023-09-18T08:33:23;95735.34;;;24.22;72.34
22647;BME280;11490;42.726;23.268;2023-09-18T08:36:05;95704.78;;;23.89;70.50
22647;BME280;11490;42.726;23.268;2023-09-18T08:38:34;95699.16;;;24.07;72.44
22647;BME280;11490;42.726;23.268;2023-09-18T08:41:05;95664.72;;;23.67;72.33
22647;BME280;11490;42.726;23.268;2023-09-18T08:43:31;95724.91;;;24.46;70.29
22647;BME280;11490;42.726;23.268;2023-09-18T08:45:57;95717.03;;;24.44;70.56
22647;BME280;11490;42.726;23.268;2023-09-18T08:48:32;95727.78;;;25.20;69.65
22647;BME280;11490;42.726;23.268;2023-09-18T08:51:02;95706.53;;;25.00;69.86
22647;BME280;11490;42.726;23.268;2023-09-18T08:53:31;95679.75;;;25.19;66.57
22647;BME280;11490;42.726;23.268;2023-09-18T08:56:00;95708.53;;;25.42;66.80
22647;BME280;11490;42.726;23.268;2023-09-18T08:58:40;95709.03;;;25.53;69.01
22647;BME280;11490;42.726;23.268;2023-09-18T09:01:18;95699.91;;;25.75;64.86
22647;BME280;11490;42.726;23.268;2023-09-18T09:03:44;95717.41;;;25.39;67.41
22647;BME280;11490;42.726;23.268;2023-09-18T09:06:12;95688.81;;;24.88;67.46
22647;BME280;11490;42.726;23.268;2023-09-18T09:08:38;95711.16;;;24.90;66.30
22647;BME280;11490;42.726;23.268;2023-09-18T09:11:04;95704.19;;;25.33;66.81
22647;BME280;11490;42.726;23.268;2023-09-18T09:13:30;95701.22;;;25.68;67.05
22647;BME280;11490;42.726;23.268;2023-09-18T09:15:57;95727.06;;;25.80;65.35
22647;BME280;11490;42.726;23.268;2023-09-18T09:18:25;95693.44;;;26.39;65.43
22647;BME280;11490;42.726;23.268;2023-09-18T09:21:03;95703.41;;;26.35;60.90
22647;BME280;11490;42.726;23.268;2023-09-18T09:23:45;95684.56;;;26.42;61.08
22647;BME280;11490;42.726;23.268;2023-09-18T09:26:14;95681.41;;;26.70;59.90
22647;BME280;11490;42.726;23.268;2023-09-18T09:28:40;95679.81;;;25.88;62.89
22647;BME280;11490;42.726;23.268;2023-09-18T09:31:08;95699.28;;;25.78;64.53
22647;BME280;11490;42.726;23.268;2023-09-18T09:33:34;95706.16;;;25.58;61.20
22647;BME280;11490;42.726;23.268;2023-09-18T09:35:59;95675.81;;;25.94;61.44
22647;BME280;11490;42.726;23.268;2023-09-18T09:38:29;95681.78;;;25.70;62.56
22647;BME280;11490;42.726;23.268;2023-09-18T09:41:07;95690.53;;;25.24;62.74
22647;BME280;11490;42.726;23.268;2023-09-18T09:43:35;95690.88;;;25.48;64.34
22647;BME280;11490;42.726;23.268;2023-09-18T09:46:01;95677.69;;;25.33;61.65
22647;BME280;11490;42.726;23.268;2023-09-18T09:48:27;95669.53;;;25.67;62.73
22647;BME280;11490;42.726;23.268;2023-09-18T09:50:58;95682.22;;;25.81;62.40
22647;BME280;11490;42.726;23.268;2023-09-18T09:53:44;95664.16;;;25.11;63.14
22647;BME280;11490;42.726;23.268;2023-09-18T09:56:12;95685.72;;;25.55;63.10
22647;BME280;11490;42.726;23.268;2023-09-18T09:58:38;95679.94;;;25.48;61.80
22647;BME280;11490;42.726;23.268;2023-09-18T10:01:08;95660.03;;;25.91;61.72
22647;BME280;11490;42.726;23.268;2023-09-18T10:03:37;95646.84;;;25.24;61.43
22647;BME280;11490;42.726;23.268;2023-09-18T10:06:04;95655.22;;;25.36;61.78
22647;BME280;11490;42.726;23.268;2023-09-18T10:08:31;95650.84;;;25.26;61.81
22647;BME280;11490;42.726;23.268;2023-09-18T10:11:17;95669.03;;;25.48;61.33
22647;BME280;11490;42.726;23.268;2023-09-18T10:13:48;95671.13;;;24.86;61.64
22647;BME280;11490;42.726;23.268;2023-09-18T10:16:18;95643.59;;;25.05;65.01
22647;BME280;11490;42.726;23.268;2023-09-18T10:18:56;95647.81;;;25.71;62.41
22647;BME280;11490;42.726;23.268;2023-09-18T10:24:09;95674.00;;;26.06;59.50
22647;BME280;11490;42.726;23.268;2023-09-18T10:29:24;95625.19;;;25.71;60.33
22647;BME280;11490;42.726;23.268;2023-09-18T10:31:53;95626.91;;;26.01;60.83
22647;BME280;11490;42.726;23.268;2023-09-18T10:34:20;95642.94;;;26.11;60.65
22647;BME280;11490;42.726;23.268;2023-09-18T10:36:47;95629.41;;;26.23;59.71
22647;BME280;11490;42.726;23.268;2023-09-18T10:39:14;95643.75;;;26.12;58.99
22647;BME280;11490;42.726;23.268;2023-09-18T10:41:47;95604.38;;;24.83;61.38
22647;BME280;11490;42.726;23.268;2023-09-18T10:44:13;95629.69;;;25.75;60.77
22647;BME280;11490;42.726;23.268;2023-09-18T10:46:39;95609.91;;;25.52;60.15
22647;BME280;11490;42.726;23.268;2023-09-18T10:49:05;95601.53;;;25.40;59.95
22647;BME280;11490;42.726;23.268;2023-09-18T10:51:32;95626.91;;;25.49;58.63
22647;BME280;11490;42.726;23.268;2023-09-18T10:53:59;95587.41;;;25.38;59.02
22647;BME280;11490;42.726;23.268;2023-09-18T10:56:25;95601.38;;;25.71;58.80
22647;BME280;11490;42.726;23.268;2023-09-18T10:58:59;95604.75;;;25.08;58.40
22647;BME280;11490;42.726;23.268;2023-09-18T11:01:24;95616.63;;;25.12;60.00
22647;BME280;11490;42.726;23.268;2023-09-18T11:03:52;95604.75;;;25.08;59.12
22647;BME280;11490;42.726;23.268;2023-09-18T11:06:18;95579.53;;;25.02;59.61
22647;BME280;11490;42.726;23.268;2023-09-18T11:08:49;95556.03;;;24.75;60.53
22647;BME280;11490;42.726;23.268;2023-09-18T11:11:18;95581.63;;;25.14;60.19
22647;BME280;11490;42.726;23.268;2023-09-18T11:13:47;95577.47;;;25.08;60.49
22647;BME280;11490;42.726;23.268;2023-09-18T11:19:16;95586.13;;;25.53;58.99
22647;BME280;11490;42.726;23.268;2023-09-18T11:21:43;95579.69;;;25.57;59.20
22647;BME280;11490;42.726;23.268;2023-09-18T11:24:21;95559.13;;;25.34;57.96
22647;BME280;11490;42.726;23.268;2023-09-18T11:26:49;95577.94;;;25.53;59.48
22647;BME280;11490;42.726;23.268;2023-09-18T11:29:22;95579.53;;;25.45;59.05
22647;BME280;11490;42.726;23.268;2023-09-18T11:31:53;95554.59;;;24.86;59.51
22647;BME280;11490;42.726;23.268;2023-09-18T11:34:27;95575.69;;;25.20;59.22
22647;BME280;11490;42.726;23.268;2023-09-18T11:37:22;95540.31;;;24.89;59.46
22647;BME280;11490;42.726;23.268;2023-09-18T11:39:50;95563.28;;;25.40;58.68
22647;BME280;11490;42.726;23.268;2023-09-18T11:42:20;95561.38;;;25.66;58.53
22647;BME280;11490;42.726;23.268;2023-09-18T11:44:49;95546.91;;;25.40;58.92
22647;BME280;11490;42.726;23.268;2023-09-18T11:47:19;95533.44;;;25.35;59.05
22647;BME280;11490;42.726;23.268;2023-09-18T11:52:20;95550.69;;;25.91;57.67
22647;BME280;11490;42.726;23.268;2023-09-18T11:54:46;95536.56;;;25.89;57.26
22647;BME280;11490;42.726;23.268;2023-09-18T11:57:13;95543.22;;;25.71;55.87
22647;BME280;11490;42.726;23.268;2023-09-18T11:59:42;95567.41;;;25.98;57.29
22647;BME280;11490;42.726;23.268;2023-09-18T12:02:08;95557.09;;;25.95;56.74
22647;BME280;11490;42.726;23.268;2023-09-18T12:04:35;95565.31;;;25.95;58.05
22647;BME280;11490;42.726;23.268;2023-09-18T12:07:03;95551.28;;;26.05;56.98
22647;BME280;11490;42.726;23.268;2023-09-18T12:09:33;95521.50;;;25.65;56.07
22647;BME280;11490;42.726;23.268;2023-09-18T12:11:59;95529.88;;;25.60;56.60
22647;BME280;11490;42.726;23.268;2023-09-18T12:14:33;95536.63;;;25.54;57.12
22647;BME280;11490;42.726;23.268;2023-09-18T12:17:00;95533.53;;;25.73;57.55
22647;BME280;11490;42.726;23.268;2023-09-18T12:19:27;95507.28;;;25.08;59.12
22647;BME280;11490;42.726;23.268;2023-09-18T12:21:53;95523.50;;;25.22;58.62
22647;BME280;11490;42.726;23.268;2023-09-18T12:24:25;95527.53;;;24.99;60.50
22647;BME280;11490;42.726;23.268;2023-09-18T12:26:52;95548.38;;;25.20;59.80
22647;BME280;11490;42.726;23.268;2023-09-18T12:29:19;95519.28;;;25.33;61.47
22647;BME280;11490;42.726;23.268;2023-09-18T12:31:44;95523.19;;;24.98;58.66
22647;BME280;11490;42.726;23.268;2023-09-18T12:34:20;95544.34;;;25.35;59.83
22647;BME280;11490;42.726;23.268;2023-09-18T12:36:47;95520.56;;;25.44;58.70
22647;BME280;11490;42.726;23.268;2023-09-18T12:39:13;95521.88;;;25.38;58.89
22647;BME280;11490;42.726;23.268;2023-09-18T12:41:45;95521.72;;;25.26;58.52
22647;BME280;11490;42.726;23.268;2023-09-18T12:44:11;95517.41;;;25.08;59.57
22647;BME280;11490;42.726;23.268;2023-09-18T12:46:39;95553.34;;;25.27;59.54
22647;BME280;11490;42.726;23.268;2023-09-18T12:49:22;95509.03;;;25.30;58.79
22647;BME280;11490;42.726;23.268;2023-09-18T12:51:57;95525.03;;;25.57;57.14
22647;BME280;11490;42.726;23.268;2023-09-18T12:54:42;95526.34;;;25.34;57.49
22647;BME280;11490;42.726;23.268;2023-09-18T12:57:09;95497.44;;;25.33;59.08
22647;BME280;11490;42.726;23.268;2023-09-18T12:59:35;95491.66;;;25.35;58.44
22647;BME280;11490;42.726;23.268;2023-09-18T13:02:02;95498.34;;;25.72;57.52
22647;BME280;11490;42.726;23.268;2023-09-18T13:04:33;95493.22;;;25.70;56.77
22647;BME280;11490;42.726;23.268;2023-09-18T13:07:09;95530.50;;;25.75;57.10
22647;BME280;11490;42.726;23.268;2023-09-18T13:09:35;95514.75;;;25.72;56.87
22647;BME280;11490;42.726;23.268;2023-09-18T13:12:03;95504.50;;;25.34;56.21
22647;BME280;11490;42.726;23.268;2023-09-18T13:14:29;95500.97;;;25.42;56.68
22647;BME280;11490;42.726;23.268;2023-09-18T13:17:03;95508.34;;;25.67;56.89
22647;BME280;11490;42.726;23.268;2023-09-18T13:19:29;95511.19;;;25.80;55.90
22647;BME280;11490;42.726;23.268;2023-09-18T13:21:55;95484.94;;;25.87;55.09
22647;BME280;11490;42.726;23.268;2023-09-18T13:24:30;95510.44;;;25.71;55.30
22647;BME280;11490;42.726;23.268;2023-09-18T13:26:57;95526.69;;;25.58;55.22
22647;BME280;11490;42.726;23.268;2023-09-18T13:29:24;95519.28;;;25.42;55.14
22647;BME280;11490;42.726;23.268;2023-09-18T13:31:50;95513.81;;;25.50;56.12
22647;BME280;11490;42.726;23.268;2023-09-18T13:34:16;95508.66;;;25.40;57.00
22647;BME280;11490;42.726;23.268;2023-09-18T13:36:45;95489.56;;;25.40;55.25
22647;BME280;11490;42.726;23.268;2023-09-18T13:39:12;95515.09;;;25.61;55.15
22647;BME280;11490;42.726;23.268;2023-09-18T13:41:37;95502.94;;;25.16;56.41
22647;BME280;11490;42.726;23.268;2023-09-18T13:44:03;95492.03;;;25.16;56.83
22647;BME280;11490;42.726;23.268;2023-09-18T13:46:29;95474.00;;;25.32;57.09
22647;BME280;11490;42.726;23.268;2023-09-18T13:48:54;95488.44;;;25.41;56.15
22647;BME280;11490;42.726;23.268;2023-09-18T13:51:20;95512.19;;;25.49;57.13
22647;BME280;11490;42.726;23.268;2023-09-18T13:53:45;95472.56;;;25.35;57.73
22647;BME280;11490;42.726;23.268;2023-09-18T13:56:13;95468.84;;;25.39;56.13
22647;BME280;11490;42.726;23.268;2023-09-18T13:58:40;95488.09;;;25.51;55.88
22647;BME280;11490;42.726;23.268;2023-09-18T14:01:06;95492.25;;;25.57;56.17
22647;BME280;11490;42.726;23.268;2023-09-18T14:03:33;95491.13;;;25.67;55.92
22647;BME280;11490;42.726;23.268;2023-09-18T14:05:58;95456.63;;;25.45;55.44
22647;BME280;11490;42.726;23.268;2023-09-18T14:08:23;95466.06;;;25.48;54.96
22647;BME280;11490;42.726;23.268;2023-09-18T14:10:49;95482.31;;;25.61;54.65
22647;BME280;11490;42.726;23.268;2023-09-18T14:13:14;95495.16;;;25.52;54.59
22647;BME280;11490;42.726;23.268;2023-09-18T14:15:40;95496.78;;;25.53;55.39
22647;BME280;11490;42.726;23.268;2023-09-18T14:18:05;95466.97;;;25.14;57.15
22647;BME280;11490;42.726;23.268;2023-09-18T14:20:31;95466.66;;;25.24;58.69
22647;BME280;11490;42.726;23.268;2023-09-18T14:22:56;95496.16;;;25.39;59.50
22647;BME280;11490;42.726;23.268;2023-09-18T14:25:22;95455.34;;;25.34;59.40
22647;BME280;11490;42.726;23.268;2023-09-18T14:27:47;95461.81;;;24.86;59.95
22647;BME280;11490;42.726;23.268;2023-09-18T14:30:13;95479.34;;;24.68;61.37
22647;BME280;11490;42.726;23.268;2023-09-18T14:32:39;95474.69;;;24.95;60.41
22647;BME280;11490;42.726;23.268;2023-09-18T14:35:05;95484.78;;;25.03;60.46
22647;BME280;11490;42.726;23.268;2023-09-18T14:37:33;95464.38;;;24.57;61.60
22647;BME280;11490;42.726;23.268;2023-09-18T14:39:59;95444.50;;;24.65;61.88
22647;BME280;11490;42.726;23.268;2023-09-18T14:42:25;95467.28;;;24.69;61.23
22647;BME280;11490;42.726;23.268;2023-09-18T14:44:50;95464.41;;;24.74;61.42
22647;BME280;11490;42.726;23.268;2023-09-18T14:47:19;95464.41;;;24.74;61.50
22647;BME280;11490;42.726;23.268;2023-09-18T14:49:44;95470.81;;;24.78;61.49
22647;BME280;11490;42.726;23.268;2023-09-18T14:52:14;95454.13;;;24.54;61.43
22647;BME280;11490;42.726;23.268;2023-09-18T14:54:41;95449.00;;;24.61;61.67
22647;BME280;11490;42.726;23.268;2023-09-18T14:57:06;95491.38;;;24.84;61.87
22647;BME280;11490;42.726;23.268;2023-09-18T14:59:32;95479.16;;;24.73;62.04
22647;BME280;11490;42.726;23.268;2023-09-18T15:01:57;95478.84;;;24.66;61.81
22647;BME280;11490;42.726;23.268;2023-09-18T15:04:47;95493.78;;;24.69;61.97
22647;BME280;11490;42.726;23.268;2023-09-18T15:07:15;95450.75;;;24.48;61.96
22647;BME280;11490;42.726;23.268;2023-09-18T15:09:44;95458.13;;;24.48;61.89
22647;BME280;11490;42.726;23.268;2023-09-18T15:12:09;95474.47;;;24.48;61.57
22647;BME280;11490;42.726;23.268;2023-09-18T15:14:37;95489.44;;;24.76;61.77
22647;BME280;11490;42.726;23.268;2023-09-18T15:17:03;95467.25;;;24.35;61.45
22647;BME280;11490;42.726;23.268;2023-09-18T15:19:28;95447.69;;;24.50;61.13
22647;BME280;11490;42.726;23.268;2023-09-18T15:21:54;95457.31;;;24.56;62.57
22647;BME280;11490;42.726;23.268;2023-09-18T15:24:21;95465.81;;;24.54;63.69
22647;BME280;11490;42.726;23.268;2023-09-18T15:26:46;95476.28;;;24.61;63.76
22647;BME280;11490;42.726;23.268;2023-09-18T15:29:13;95494.09;;;24.76;63.75
22647;BME280;11490;42.726;23.268;2023-09-18T15:31:38;95482.03;;;24.51;64.35
22647;BME280;11490;42.726;23.268;2023-09-18T15:34:06;95468.69;;;24.41;64.21
22647;BME280;11490;42.726;23.268;2023-09-18T15:36:31;95464.00;;;24.15;64.93
22647;BME280;11490;42.726;23.268;2023-09-18T15:38:57;95483.94;;;24.42;65.25
22647;BME280;11490;42.726;23.268;2023-09-18T15:41:22;95472.22;;;24.33;65.20
22647;BME280;11490;42.726;23.268;2023-09-18T15:43:48;95459.72;;;24.23;65.75
22647;BME280;11490;42.726;23.268;2023-09-18T15:46:15;95481.91;;;23.99;67.25
22647;BME280;11490;42.726;23.268;2023-09-18T15:48:45;95442.22;;;23.76;67.27
22647;BME280;11490;42.726;23.268;2023-09-18T15:51:10;95488.44;;;23.90;68.04
22647;BME280;11490;42.726;23.268;2023-09-18T15:53:36;95441.66;;;23.57;68.36
22647;BME280;11490;42.726;23.268;2023-09-18T15:56:01;95464.38;;;23.83;68.08
22647;BME280;11490;42.726;23.268;2023-09-18T15:58:27;95461.19;;;23.90;67.14
22647;BME280;11490;42.726;23.268;2023-09-18T16:00:53;95447.34;;;23.77;67.76
22647;BME280;11490;42.726;23.268;2023-09-18T16:03:23;95456.81;;;23.80;67.13
22647;BME280;11490;42.726;23.268;2023-09-18T16:05:49;95460.22;;;23.55;67.89
22647;BME280;11490;42.726;23.268;2023-09-18T16:08:17;95462.38;;;23.66;67.86
22647;BME280;11490;42.726;23.268;2023-09-18T16:10:43;95462.53;;;23.70;67.93
22647;BME280;11490;42.726;23.268;2023-09-18T16:13:08;95459.31;;;23.59;67.84
22647;BME280;11490;42.726;23.268;2023-09-18T16:15:34;95473.38;;;23.53;69.03
22647;BME280;11490;42.726;23.268;2023-09-18T16:17:59;95473.75;;;23.46;68.96
22647;BME280;11490;42.726;23.268;2023-09-18T16:20:24;95469.94;;;23.47;68.55
22647;BME280;11490;42.726;23.268;2023-09-18T16:22:57;95454.19;;;23.35;68.69
22647;BME280;11490;42.726;23.268;2023-09-18T16:25:26;95465.22;;;23.30;69.31